createdAt,value
2022-11-22T00:01:34.144Z,4.9
2022-11-22T00:11:36.300Z,5
2022-11-22T00:21:38.389Z,4.9
2022-11-22T00:31:40.256Z,5
2022-11-22T00:41:42.377Z,5
2022-11-22T00:51:44.550Z,5
2022-11-22T01:01:46.287Z,5
2022-11-22T01:11:48.844Z,5
2022-11-22T01:21:51.011Z,5.2
2022-11-22T01:31:53.625Z,5.1
2022-11-22T01:41:56.025Z,5.8
2022-11-22T02:01:59.917Z,5.3
2022-11-22T02:12:01.872Z,5.3
2022-11-22T02:22:03.704Z,5.2
2022-11-22T02:32:05.933Z,5.2
2022-11-22T02:42:07.877Z,5.2
2022-11-22T02:52:09.772Z,5.5
2022-11-22T03:02:12.072Z,5.5
2022-11-22T03:12:14.123Z,5.6
2022-11-22T03:22:16.185Z,5.8
2022-11-22T03:32:18.718Z,6.1
2022-11-22T03:42:21.798Z,6.1
2022-11-22T03:52:23.152Z,6.2
2022-11-22T04:02:25.107Z,6
2022-11-22T04:12:27.170Z,6.2
2022-11-22T04:22:29.056Z,6.1
2022-11-22T04:32:31.553Z,5.9
2022-11-22T04:52:35.569Z,5.7
2022-11-22T05:02:37.900Z,5.3
2022-11-22T05:12:39.988Z,4.9
2022-11-22T05:22:42.142Z,4.8
2022-11-22T05:32:43.892Z,4.9
2022-11-22T05:42:46.156Z,4.6
2022-11-22T06:02:49.868Z,4.3
2022-11-22T06:12:52.341Z,4.2
2022-11-22T06:32:55.909Z,3.9
2022-11-22T06:42:58.400Z,3.8
2022-11-22T06:53:00.326Z,3.8
2022-11-22T07:03:02.460Z,3.7
2022-11-22T07:13:04.638Z,3.6
2022-11-22T07:23:07.083Z,3.6
2022-11-22T07:33:09.068Z,3.6
2022-11-22T07:43:11.586Z,3.6
2022-11-22T07:53:14.011Z,3.8
2022-11-22T08:03:17.882Z,4
2022-11-22T08:13:18.889Z,4.6
2022-11-22T08:23:21.301Z,4.6
2022-11-22T08:33:23.202Z,5
2022-11-22T08:53:27.763Z,5.7
2022-11-22T09:03:29.752Z,6.2
2022-11-22T09:13:31.609Z,6.5
2022-11-22T09:23:34.142Z,6.7
2022-11-22T09:33:35.934Z,6.9
2022-11-22T09:43:37.694Z,7.1
2022-11-22T09:53:40.122Z,7.3
2022-11-22T10:03:41.959Z,7.1
2022-11-22T10:13:44.175Z,7.1
2022-11-22T10:23:46.682Z,7.6
2022-11-22T10:33:48.474Z,7.4
2022-11-22T10:43:50.347Z,7.2
2022-11-22T10:53:52.267Z,7.2
2022-11-22T11:03:54.407Z,7.1
2022-11-22T11:13:56.445Z,7.3
2022-11-22T11:23:58.635Z,7.3
2022-11-22T11:34:00.861Z,7.8
2022-11-22T11:44:03.463Z,8.2
2022-11-22T11:54:05.466Z,7.9
2022-11-22T12:04:07.610Z,8
2022-11-22T12:14:19.791Z,7.9
2022-11-22T12:44:16.355Z,7.7
2022-11-22T12:54:18.475Z,7.6
2022-11-22T13:04:20.229Z,7.7
2022-11-22T13:14:22.041Z,7.9
2022-11-22T13:24:24.594Z,8.4
2022-11-22T13:34:26.293Z,8.1
2022-11-22T13:44:28.971Z,8.1
2022-11-22T13:54:30.572Z,8.1
2022-11-22T14:04:32.705Z,8
2022-11-22T14:14:34.530Z,8
2022-11-22T14:24:36.491Z,7.9
2022-11-22T14:34:39.019Z,7.7
2022-11-22T14:44:41.577Z,7.8
2022-11-22T14:54:43.483Z,7.9
2022-11-22T15:14:47.357Z,7.8
2022-11-22T16:06:05.087Z,7.5
2022-11-22T16:15:06.454Z,7.6
2022-11-22T16:25:09.875Z,7.5
2022-11-22T16:35:28.337Z,7.4
2022-11-22T16:45:12.842Z,7.4
2022-11-22T16:55:15.402Z,7.4
2022-11-22T17:05:17.550Z,7.4
2022-11-22T17:15:19.402Z,7.4
2022-11-22T17:25:21.671Z,7.4
2022-11-22T17:35:23.816Z,7.3
2022-11-22T17:45:26.098Z,7.2
2022-11-22T17:55:42.573Z,7.1
2022-11-22T18:05:31.203Z,7.1
2022-11-22T18:15:33.087Z,6.7
2022-11-22T18:25:34.990Z,6.8
2022-11-22T18:35:37.207Z,6.8
2022-11-22T18:45:39.255Z,6.7
2022-11-22T18:55:41.720Z,6.3
2022-11-22T19:05:44.208Z,6.2
2022-11-22T19:15:45.915Z,6.2
2022-11-22T19:25:48.191Z,6.2
2022-11-22T19:35:50.279Z,6.2
2022-11-22T19:45:52.194Z,6.3
2022-11-22T20:15:58.478Z,6.5
2022-11-22T20:26:01.003Z,6.5
2022-11-22T20:36:02.897Z,6.6
2022-11-22T20:46:04.974Z,6.7
2022-11-22T20:56:06.655Z,6.6
2022-11-22T21:06:08.767Z,6.7
2022-11-22T21:16:22.061Z,6.8
2022-11-22T21:26:12.667Z,7.1
2022-11-22T21:36:14.888Z,7.3
2022-11-22T21:46:17.339Z,7.3
2022-11-22T21:56:19.896Z,7.4
2022-11-22T22:06:22.243Z,7.5
2022-11-22T22:16:23.959Z,7.5
2022-11-22T22:26:26.293Z,7.4
2022-11-22T22:36:28.211Z,7.4
2022-11-22T22:46:30.560Z,7.4
2022-11-22T23:06:34.295Z,7.5
2022-11-22T23:16:36.476Z,7.3
2022-11-22T23:26:38.217Z,7.2
2022-11-22T23:36:41.082Z,7.2
2022-11-22T23:46:42.416Z,7.1
2022-11-22T23:56:44.491Z,7.1
